sensor_id;sensor_type;location;lat;lon;timestamp;pressure;altitude;pressure_sealevel;temperature;humidity
23899;BME280;20544;50.018;20.010;2023-04-06T00:02:22;99160.97;;;0.92;100.00
23899;BME280;20544;50.018;20.010;2023-04-06T00:05:39;99168.36;;;0.98;100.00
23899;BME280;20544;50.018;20.010;2023-04-06T00:08:55;99170.86;;;1.00;100.00
23899;BME280;20544;50.018;20.010;2023-04-06T00:12:12;99163.99;;;0.99;100.00
23899;BME280;20544;50.018;20.010;2023-04-06T00:15:28;99166.81;;;0.95;100.00
23899;BME280;20544;50.018;20.010;2023-04-06T00:18:45;99165.88;;;0.96;100.00
23899;BME280;20544;50.018;20.010;2023-04-06T00:22:01;99164.31;;;0.94;100.00
23899;BME280;20544;50.018;20.010;2023-04-06T00:25:18;99160.03;;;0.93;100.00
23899;BME280;20544;50.018;20.010;2023-04-06T00:28:34;99165.98;;;0.95;100.00
23899;BME280;20544;50.018;20.010;2023-04-06T00:31:51;99155.86;;;0.90;100.00
23899;BME280;20544;50.018;20.010;2023-04-06T00:35:09;99157.86;;;0.87;100.00
23899;BME280;20544;50.018;20.010;2023-04-06T00:38:25;99154.52;;;0.85;100.00
23899;BME280;20544;50.018;20.010;2023-04-06T00:41:45;99150.47;;;0.80;100.00
23899;BME280;20544;50.018;20.010;2023-04-06T00:45:04;99147.97;;;0.79;100.00
23899;BME280;20544;50.018;20.010;2023-04-06T00:48:22;99143.57;;;0.79;100.00
23899;BME280;20544;50.018;20.010;2023-04-06T00:51:40;99142.75;;;0.79;100.00
23899;BME280;20544;50.018;20.010;2023-04-06T00:54:56;99144.13;;;0.72;100.00
23899;BME280;20544;50.018;20.010;2023-04-06T00:58:14;99130.87;;;0.38;100.00
23899;BME280;20544;50.018;20.010;2023-04-06T01:01:32;99143.52;;;0.18;100.00
23899;BME280;20544;50.018;20.010;2023-04-06T01:04:50;99135.30;;;-0.02;100.00
23899;BME280;20544;50.018;20.010;2023-04-06T01:08:09;99131.45;;;-0.22;100.00
23899;BME280;20544;50.018;20.010;2023-04-06T01:11:26;99118.31;;;-0.33;100.00
23899;BME280;20544;50.018;20.010;2023-04-06T01:14:44;99121.44;;;-0.28;100.00
23899;BME280;20544;50.018;20.010;2023-04-06T01:24:09;99121.63;;;-0.44;100.00
23899;BME280;20544;50.018;20.010;2023-04-06T01:27:33;99118.50;;;-0.62;100.00
23899;BME280;20544;50.018;20.010;2023-04-06T01:30:51;99119.02;;;-0.57;100.00
23899;BME280;20544;50.018;20.010;2023-04-06T01:34:09;99110.98;;;-0.54;100.00
23899;BME280;20544;50.018;20.010;2023-04-06T01:37:26;99108.38;;;-0.54;100.00
23899;BME280;20544;50.018;20.010;2023-04-06T01:40:44;99110.68;;;-0.62;100.00
23899;BME280;20544;50.018;20.010;2023-04-06T01:44:03;99110.75;;;-0.76;100.00
23899;BME280;20544;50.018;20.010;2023-04-06T01:47:20;99111.16;;;-0.83;100.00
23899;BME280;20544;50.018;20.010;2023-04-06T01:50:38;99102.39;;;-0.94;100.00
23899;BME280;20544;50.018;20.010;2023-04-06T01:53:56;99102.28;;;-0.93;100.00
23899;BME280;20544;50.018;20.010;2023-04-06T01:57:30;99101.55;;;-0.95;100.00
23899;BME280;20544;50.018;20.010;2023-04-06T02:00:48;99107.28;;;-0.90;100.00
23899;BME280;20544;50.018;20.010;2023-04-06T02:04:05;99102.70;;;-0.86;100.00
23899;BME280;20544;50.018;20.010;2023-04-06T02:07:24;99098.86;;;-0.93;100.00
23899;BME280;20544;50.018;20.010;2023-04-06T02:10:41;99094.36;;;-0.91;100.00
23899;BME280;20544;50.018;20.010;2023-04-06T02:13:59;99095.62;;;-0.97;100.00
23899;BME280;20544;50.018;20.010;2023-04-06T02:17:17;99099.26;;;-1.00;100.00
23899;BME280;20544;50.018;20.010;2023-04-06T02:20:34;99091.92;;;-1.07;100.00
23899;BME280;20544;50.018;20.010;2023-04-06T02:23:50;99092.27;;;-0.99;100.00
23899;BME280;20544;50.018;20.010;2023-04-06T02:27:07;99091.13;;;-0.95;100.00
23899;BME280;20544;50.018;20.010;2023-04-06T02:30:25;99093.73;;;-0.95;100.00
23899;BME280;20544;50.018;20.010;2023-04-06T02:33:42;99080.27;;;-1.15;100.00
23899;BME280;20544;50.018;20.010;2023-04-06T02:36:59;99091.92;;;-1.07;100.00
23899;BME280;20544;50.018;20.010;2023-04-06T02:40:17;99092.32;;;-1.14;100.00
23899;BME280;20544;50.018;20.010;2023-04-06T02:43:34;99094.39;;;-1.19;100.00
23899;BME280;20544;50.018;20.010;2023-04-06T02:46:55;99095.64;;;-1.24;100.00
23899;BME280;20544;50.018;20.010;2023-04-06T02:50:12;99095.50;;;-1.36;100.00
23899;BME280;20544;50.018;20.010;2023-04-06T02:53:33;99095.03;;;-1.42;100.00
23899;BME280;20544;50.018;20.010;2023-04-06T02:56:51;99094.85;;;-1.39;100.00
23899;BME280;20544;50.018;20.010;2023-04-06T03:00:12;99095.03;;;-1.42;100.00
23899;BME280;20544;50.018;20.010;2023-04-06T03:06:33;99108.80;;;-1.40;100.00
23899;BME280;20544;50.018;20.010;2023-04-06T03:09:51;99103.59;;;-1.40;100.00
23899;BME280;20544;50.018;20.010;2023-04-06T03:13:09;99099.20;;;-1.40;100.00
23899;BME280;20544;50.018;20.010;2023-04-06T03:16:33;99092.82;;;-1.49;100.00
23899;BME280;20544;50.018;20.010;2023-04-06T03:22:54;99099.56;;;-1.32;100.00
23899;BME280;20544;50.018;20.010;2023-04-06T03:26:13;99101.88;;;-1.27;100.00
23899;BME280;20544;50.018;20.010;2023-04-06T03:29:31;99097.45;;;-1.39;100.00
23899;BME280;20544;50.018;20.010;2023-04-06T03:32:49;99101.73;;;-1.38;100.00
23899;BME280;20544;50.018;20.010;2023-04-06T03:36:08;99108.64;;;-1.52;100.00
23899;BME280;20544;50.018;20.010;2023-04-06T03:39:24;99114.33;;;-1.59;100.00
23899;BME280;20544;50.018;20.010;2023-04-06T03:42:41;99111.89;;;-1.48;100.00
23899;BME280;20544;50.018;20.010;2023-04-06T03:45:58;99102.52;;;-1.51;100.00
23899;BME280;20544;50.018;20.010;2023-04-06T03:49:15;99106.48;;;-1.45;100.00
23899;BME280;20544;50.018;20.010;2023-04-06T03:52:32;99102.69;;;-1.54;100.00
23899;BME280;20544;50.018;20.010;2023-04-06T03:55:48;99097.31;;;-1.51;100.00
23899;BME280;20544;50.018;20.010;2023-04-06T03:59:05;99104.36;;;-1.53;100.00
23899;BME280;20544;50.018;20.010;2023-04-06T04:02:21;99104.26;;;-1.51;100.00
23899;BME280;20544;50.018;20.010;2023-04-06T04:05:38;99103.34;;;-1.50;100.00
23899;BME280;20544;50.018;20.010;2023-04-06T04:08:55;99101.77;;;-1.53;100.00
23899;BME280;20544;50.018;20.010;2023-04-06T04:12:11;99106.69;;;-1.48;100.00
23899;BME280;20544;50.018;20.010;2023-04-06T04:15:28;99103.48;;;-1.39;100.00
23899;BME280;20544;50.018;20.010;2023-04-06T04:18:45;99113.14;;;-1.41;100.00
23899;BME280;20544;50.018;20.010;2023-04-06T04:22:03;99108.69;;;-1.39;100.00
23899;BME280;20544;50.018;20.010;2023-04-06T04:25:20;99102.27;;;-1.33;100.00
23899;BME280;20544;50.018;20.010;2023-04-06T04:28:36;99098.92;;;-1.35;100.00
23899;BME280;20544;50.018;20.010;2023-04-06T04:31:54;99101.34;;;-1.32;100.00
23899;BME280;20544;50.018;20.010;2023-04-06T04:35:14;99098.28;;;-1.39;100.00
23899;BME280;20544;50.018;20.010;2023-04-06T04:38:30;99098.81;;;-1.34;100.00
23899;BME280;20544;50.018;20.010;2023-04-06T04:41:46;99104.66;;;-1.30;100.00
23899;BME280;20544;50.018;20.010;2023-04-06T04:45:04;99094.78;;;-1.25;100.00
23899;BME280;20544;50.018;20.010;2023-04-06T04:51:25;99101.52;;;-1.08;100.00
23899;BME280;20544;50.018;20.010;2023-04-06T04:54:47;99099.26;;;-1.00;100.00
23899;BME280;20544;50.018;20.010;2023-04-06T04:58:05;99098.34;;;-0.86;100.00
23899;BME280;20544;50.018;20.010;2023-04-06T05:01:26;99100.20;;;-0.88;100.00
23899;BME280;20544;50.018;20.010;2023-04-06T05:04:45;99094.89;;;-0.86;100.00
23899;BME280;20544;50.018;20.010;2023-04-06T05:08:05;99097.49;;;-0.86;100.00
23899;BME280;20544;50.018;20.010;2023-04-06T05:11:26;99089.61;;;-0.85;100.00
23899;BME280;20544;50.018;20.010;2023-04-06T05:14:43;99089.28;;;-0.80;100.00
23899;BME280;20544;50.018;20.010;2023-04-06T05:18:00;99093.89;;;-0.71;100.00
23899;BME280;20544;50.018;20.010;2023-04-06T05:21:18;99089.39;;;-0.69;100.00
23899;BME280;20544;50.018;20.010;2023-04-06T05:24:35;99089.13;;;-0.51;100.00
23899;BME280;20544;50.018;20.010;2023-04-06T05:27:51;99086.41;;;-0.50;100.00
23899;BME280;20544;50.018;20.010;2023-04-06T05:31:13;99085.99;;;-0.43;100.00
23899;BME280;20544;50.018;20.010;2023-04-06T05:34:33;99089.83;;;-0.49;100.00
23899;BME280;20544;50.018;20.010;2023-04-06T05:37:49;99096.52;;;-0.32;100.00
23899;BME280;20544;50.018;20.010;2023-04-06T05:41:06;99095.17;;;-0.25;100.00
23899;BME280;20544;50.018;20.010;2023-04-06T05:44:22;99091.52;;;-0.22;100.00
23899;BME280;20544;50.018;20.010;2023-04-06T05:47:43;99091.59;;;-0.24;100.00
23899;BME280;20544;50.018;20.010;2023-04-06T05:51:05;99091.38;;;-0.08;100.00
23899;BME280;20544;50.018;20.010;2023-04-06T05:54:28;99089.08;;;0.01;100.00
23899;BME280;20544;50.018;20.010;2023-04-06T05:57:45;99088.86;;;0.04;100.00
23899;BME280;20544;50.018;20.010;2023-04-06T06:01:02;99086.78;;;0.09;100.00
23899;BME280;20544;50.018;20.010;2023-04-06T06:04:21;99087.38;;;0.12;100.00
23899;BME280;20544;50.018;20.010;2023-04-06T06:07:37;99085.39;;;0.16;100.00
23899;BME280;20544;50.018;20.010;2023-04-06T06:10:54;99096.13;;;0.24;100.00
23899;BME280;20544;50.018;20.010;2023-04-06T06:14:11;99089.42;;;0.33;100.00
23899;BME280;20544;50.018;20.010;2023-04-06T06:17:28;99098.50;;;0.40;100.00
23899;BME280;20544;50.018;20.010;2023-04-06T06:20:48;99095.66;;;0.43;100.00
23899;BME280;20544;50.018;20.010;2023-04-06T06:24:06;99094.72;;;0.44;100.00
23899;BME280;20544;50.018;20.010;2023-04-06T06:27:23;99099.35;;;0.65;100.00
23899;BME280;20544;50.018;20.010;2023-04-06T06:30:39;99090.91;;;0.61;100.00
23899;BME280;20544;50.018;20.010;2023-04-06T06:33:58;99100.06;;;0.67;100.00
23899;BME280;20544;50.018;20.010;2023-04-06T06:37:15;99100.55;;;0.72;100.00
23899;BME280;20544;50.018;20.010;2023-04-06T06:40:33;99097.73;;;0.75;100.00
23899;BME280;20544;50.018;20.010;2023-04-06T06:43:50;99095.95;;;0.76;100.00
23899;BME280;20544;50.018;20.010;2023-04-06T06:47:08;99096.47;;;0.81;100.00
23899;BME280;20544;50.018;20.010;2023-04-06T06:50:24;99101.45;;;0.84;100.00
23899;BME280;20544;50.018;20.010;2023-04-06T06:53:41;99095.30;;;0.85;100.00
23899;BME280;20544;50.018;20.010;2023-04-06T06:56:58;99099.22;;;0.91;100.00
23899;BME280;20544;50.018;20.010;2023-04-06T07:00:16;99092.11;;;0.93;100.00
23899;BME280;20544;50.018;20.010;2023-04-06T07:03:35;99087.98;;;1.02;100.00
23899;BME280;20544;50.018;20.010;2023-04-06T07:06:51;99098.81;;;1.08;100.00
23899;BME280;20544;50.018;20.010;2023-04-06T07:10:10;99097.53;;;1.14;100.00
23899;BME280;20544;50.018;20.010;2023-04-06T07:13:27;99093.41;;;1.23;100.00
23899;BME280;20544;50.018;20.010;2023-04-06T07:16:44;99095.20;;;1.22;100.00
23899;BME280;20544;50.018;20.010;2023-04-06T07:20:01;99104.83;;;1.33;100.00
23899;BME280;20544;50.018;20.010;2023-04-06T07:23:18;99098.54;;;1.36;100.00
23899;BME280;20544;50.018;20.010;2023-04-06T07:26:35;99105.92;;;1.42;100.00
23899;BME280;20544;50.018;20.010;2023-04-06T07:29:51;99105.09;;;1.41;100.00
23899;BME280;20544;50.018;20.010;2023-04-06T07:33:08;99097.38;;;1.40;100.00
23899;BME280;20544;50.018;20.010;2023-04-06T07:36:25;99100.02;;;1.51;100.00
23899;BME280;20544;50.018;20.010;2023-04-06T07:39:42;99107.39;;;1.57;100.00
23899;BME280;20544;50.018;20.010;2023-04-06T07:42:59;99100.75;;;1.65;100.00
23899;BME280;20544;50.018;20.010;2023-04-06T07:46:19;99102.91;;;1.71;100.00
23899;BME280;20544;50.018;20.010;2023-04-06T07:49:36;99092.66;;;1.68;100.00
23899;BME280;20544;50.018;20.010;2023-04-06T07:52:52;99089.70;;;1.72;100.00
23899;BME280;20544;50.018;20.010;2023-04-06T07:56:10;99084.22;;;1.64;100.00
23899;BME280;20544;50.018;20.010;2023-04-06T07:59:27;99089.92;;;1.81;100.00
23899;BME280;20544;50.018;20.010;2023-04-06T08:02:55;99092.07;;;1.87;100.00
23899;BME280;20544;50.018;20.010;2023-04-06T08:06:12;99074.48;;;2.00;100.00
23899;BME280;20544;50.018;20.010;2023-04-06T08:09:29;99080.30;;;2.15;100.00
23899;BME280;20544;50.018;20.010;2023-04-06T08:12:46;99073.39;;;2.14;100.00
23899;BME280;20544;50.018;20.010;2023-04-06T08:16:02;99072.77;;;2.45;100.00
23899;BME280;20544;50.018;20.010;2023-04-06T08:19:20;99067.63;;;2.54;100.00
23899;BME280;20544;50.018;20.010;2023-04-06T08:22:38;99069.85;;;2.59;100.00
23899;BME280;20544;50.018;20.010;2023-04-06T08:25:55;99076.20;;;2.45;100.00
23899;BME280;20544;50.018;20.010;2023-04-06T08:29:11;99069.52;;;2.52;100.00
23899;BME280;20544;50.018;20.010;2023-04-06T08:32:28;99065.10;;;2.64;100.00
23899;BME280;20544;50.018;20.010;2023-04-06T08:35:45;99063.34;;;2.86;100.00
23899;BME280;20544;50.018;20.010;2023-04-06T08:39:02;99069.00;;;3.23;100.00
23899;BME280;20544;50.018;20.010;2023-04-06T08:42:21;99065.63;;;3.33;100.00
23899;BME280;20544;50.018;20.010;2023-04-06T08:45:40;99054.41;;;3.52;100.00
23899;BME280;20544;50.018;20.010;2023-04-06T08:48:58;99053.53;;;3.42;100.00
23899;BME280;20544;50.018;20.010;2023-04-06T08:52:14;99050.41;;;3.58;100.00
23899;BME280;20544;50.018;20.010;2023-04-06T08:55:31;99047.25;;;3.54;100.00
23899;BME280;20544;50.018;20.010;2023-04-06T08:58:49;99056.39;;;3.38;100.00
23899;BME280;20544;50.018;20.010;2023-04-06T09:02:06;99049.42;;;3.28;100.00
23899;BME280;20544;50.018;20.010;2023-04-06T09:05:27;99038.93;;;3.06;100.00
23899;BME280;20544;50.018;20.010;2023-04-06T09:08:43;99043.63;;;3.03;100.00
23899;BME280;20544;50.018;20.010;2023-04-06T09:12:00;99041.61;;;2.95;100.00
23899;BME280;20544;50.018;20.010;2023-04-06T09:15:23;99048.20;;;2.89;100.00
23899;BME280;20544;50.018;20.010;2023-04-06T09:21:43;99036.42;;;2.84;100.00
23899;BME280;20544;50.018;20.010;2023-04-06T09:25:00;99036.30;;;2.85;100.00
23899;BME280;20544;50.018;20.010;2023-04-06T09:28:17;99031.40;;;2.92;100.00
23899;BME280;20544;50.018;20.010;2023-04-06T09:31:34;99038.46;;;2.80;100.00
23899;BME280;20544;50.018;20.010;2023-04-06T09:34:51;99029.86;;;2.89;100.00
23899;BME280;20544;50.018;20.010;2023-04-06T09:38:13;99019.48;;;2.67;100.00
23899;BME280;20544;50.018;20.010;2023-04-06T09:41:31;99018.81;;;2.53;100.00
23899;BME280;20544;50.018;20.010;2023-04-06T09:44:48;99016.28;;;2.63;100.00
23899;BME280;20544;50.018;20.010;2023-04-06T09:48:06;99017.55;;;2.69;100.00
23899;BME280;20544;50.018;20.010;2023-04-06T09:51:23;99022.56;;;2.72;100.00
23899;BME280;20544;50.018;20.010;2023-04-06T09:54:43;99022.56;;;2.72;100.00
23899;BME280;20544;50.018;20.010;2023-04-06T09:58:06;99019.81;;;2.73;100.00
23899;BME280;20544;50.018;20.010;2023-04-06T10:01:30;99013.61;;;2.74;100.00
23899;BME280;20544;50.018;20.010;2023-04-06T10:04:55;99018.09;;;2.84;100.00
23899;BME280;20544;50.018;20.010;2023-04-06T10:08:14;99019.62;;;2.86;100.00
23899;BME280;20544;50.018;20.010;2023-04-06T10:11:32;99021.34;;;2.76;100.00
23899;BME280;20544;50.018;20.010;2023-04-06T10:14:50;99022.64;;;2.82;100.00
23899;BME280;20544;50.018;20.010;2023-04-06T10:18:07;99013.80;;;2.83;100.00
23899;BME280;20544;50.018;20.010;2023-04-06T10:24:40;99018.64;;;2.66;100.00
23899;BME280;20544;50.018;20.010;2023-04-06T10:28:04;99024.33;;;2.71;100.00
23899;BME280;20544;50.018;20.010;2023-04-06T10:31:28;99016.02;;;2.66;100.00
23899;BME280;20544;50.018;20.010;2023-04-06T10:34:44;99010.38;;;2.50;100.00
23899;BME280;20544;50.018;20.010;2023-04-06T10:38:04;99002.47;;;2.29;100.00
23899;BME280;20544;50.018;20.010;2023-04-06T10:41:23;99000.08;;;2.25;100.00
23899;BME280;20544;50.018;20.010;2023-04-06T10:44:43;98997.36;;;2.27;100.00
23899;BME280;20544;50.018;20.010;2023-04-06T10:48:00;98993.80;;;2.28;100.00
23899;BME280;20544;50.018;20.010;2023-04-06T10:51:23;98993.44;;;2.21;100.00
23899;BME280;20544;50.018;20.010;2023-04-06T10:54:44;98984.38;;;2.25;100.00
23899;BME280;20544;50.018;20.010;2023-04-06T10:58:00;98982.34;;;2.29;100.00
23899;BME280;20544;50.018;20.010;2023-04-06T11:01:20;98985.77;;;2.41;100.00
23899;BME280;20544;50.018;20.010;2023-04-06T11:04:38;98978.41;;;2.35;100.00
23899;BME280;20544;50.018;20.010;2023-04-06T11:07:55;98983.55;;;2.25;100.00
23899;BME280;20544;50.018;20.010;2023-04-06T11:11:13;98980.84;;;2.15;100.00
23899;BME280;20544;50.018;20.010;2023-04-06T11:14:32;98977.41;;;2.15;100.00
23899;BME280;20544;50.018;20.010;2023-04-06T11:17:48;98975.61;;;2.15;100.00
23899;BME280;20544;50.018;20.010;2023-04-06T11:21:07;98976.72;;;2.01;100.00
23899;BME280;20544;50.018;20.010;2023-04-06T11:24:24;98976.36;;;2.06;100.00
23899;BME280;20544;50.018;20.010;2023-04-06T11:27:41;98974.59;;;1.95;100.00
23899;BME280;20544;50.018;20.010;2023-04-06T11:30:59;98970.17;;;1.96;100.00
23899;BME280;20544;50.018;20.010;2023-04-06T11:34:18;98970.77;;;1.99;100.00
23899;BME280;20544;50.018;20.010;2023-04-06T11:37:36;98964.38;;;1.92;100.00
23899;BME280;20544;50.018;20.010;2023-04-06T11:40:56;98969.81;;;2.00;100.00
23899;BME280;20544;50.018;20.010;2023-04-06T11:44:13;98960.67;;;1.83;100.00
23899;BME280;20544;50.018;20.010;2023-04-06T11:47:35;98966.98;;;1.81;100.00
23899;BME280;20544;50.018;20.010;2023-04-06T11:50:56;98969.97;;;1.87;100.00
23899;BME280;20544;50.018;20.010;2023-04-06T11:54:16;98960.91;;;1.91;100.00
23899;BME280;20544;50.018;20.010;2023-04-06T11:57:32;98963.63;;;2.01;100.00
23899;BME280;20544;50.018;20.010;2023-04-06T12:00:50;98964.09;;;2.06;100.00
23899;BME280;20544;50.018;20.010;2023-04-06T12:04:07;98949.70;;;2.12;100.00
23899;BME280;20544;50.018;20.010;2023-04-06T12:07:24;98935.57;;;2.03;100.00
23899;BME280;20544;50.018;20.010;2023-04-06T12:10:40;98940.02;;;1.80;100.00
23899;BME280;20544;50.018;20.010;2023-04-06T12:13:57;98937.28;;;1.70;100.00
23899;BME280;20544;50.018;20.010;2023-04-06T12:17:14;98944.52;;;1.78;100.00
23899;BME280;20544;50.018;20.010;2023-04-06T12:20:31;98941.91;;;1.78;100.00
23899;BME280;20544;50.018;20.010;2023-04-06T12:23:48;98951.30;;;1.81;100.00
23899;BME280;20544;50.018;20.010;2023-04-06T12:27:06;98952.73;;;1.85;100.00
23899;BME280;20544;50.018;20.010;2023-04-06T12:30:23;98947.70;;;1.93;100.00
23899;BME280;20544;50.018;20.010;2023-04-06T12:33:41;98940.87;;;1.58;100.00
23899;BME280;20544;50.018;20.010;2023-04-06T12:37:00;98931.34;;;1.68;100.00
23899;BME280;20544;50.018;20.010;2023-04-06T12:40:17;98938.70;;;1.74;100.00
23899;BME280;20544;50.018;20.010;2023-04-06T12:43:36;98926.59;;;1.73;100.00
23899;BME280;20544;50.018;20.010;2023-04-06T12:46:53;98925.39;;;1.77;100.00
23899;BME280;20544;50.018;20.010;2023-04-06T12:50:11;98917.45;;;1.68;100.00
23899;BME280;20544;50.018;20.010;2023-04-06T12:53:28;98917.58;;;1.66;100.00
23899;BME280;20544;50.018;20.010;2023-04-06T12:56:44;98917.11;;;1.61;100.00
23899;BME280;20544;50.018;20.010;2023-04-06T13:00:01;98914.72;;;1.58;100.00
23899;BME280;20544;50.018;20.010;2023-04-06T13:03:19;98908.90;;;1.54;100.00
23899;BME280;20544;50.018;20.010;2023-04-06T13:06:36;98901.31;;;1.51;100.00
23899;BME280;20544;50.018;20.010;2023-04-06T13:09:53;98903.45;;;1.46;100.00
23899;BME280;20544;50.018;20.010;2023-04-06T13:13:09;98891.67;;;1.52;100.00
23899;BME280;20544;50.018;20.010;2023-04-06T13:16:26;98887.98;;;1.54;100.00
23899;BME280;20544;50.018;20.010;2023-04-06T13:19:44;98878.39;;;1.43;100.00
23899;BME280;20544;50.018;20.010;2023-04-06T13:23:01;98882.75;;;1.54;100.00
23899;BME280;20544;50.018;20.010;2023-04-06T13:26:17;98885.73;;;1.38;100.00
23899;BME280;20544;50.018;20.010;2023-04-06T13:29:35;98872.58;;;1.40;100.00
23899;BME280;20544;50.018;20.010;2023-04-06T13:32:51;98872.11;;;1.35;100.00
23899;BME280;20544;50.018;20.010;2023-04-06T13:36:09;98877.41;;;1.44;100.00
23899;BME280;20544;50.018;20.010;2023-04-06T13:39:26;98880.75;;;1.47;100.00
23899;BME280;20544;50.018;20.010;2023-04-06T13:42:42;98877.30;;;1.57;100.00
23899;BME280;20544;50.018;20.010;2023-04-06T13:45:59;98869.58;;;1.56;100.00
23899;BME280;20544;50.018;20.010;2023-04-06T13:49:16;98878.60;;;1.52;100.00
23899;BME280;20544;50.018;20.010;2023-04-06T13:52:33;98868.53;;;1.47;100.00
23899;BME280;20544;50.018;20.010;2023-04-06T13:55:57;98872.42;;;1.53;100.00
23899;BME280;20544;50.018;20.010;2023-04-06T13:59:14;98873.80;;;1.68;100.00
23899;BME280;20544;50.018;20.010;2023-04-06T14:02:30;98880.11;;;1.66;100.00
23899;BME280;20544;50.018;20.010;2023-04-06T14:05:48;98876.42;;;1.68;100.00
23899;BME280;20544;50.018;20.010;2023-04-06T14:09:06;98877.98;;;1.71;100.00
23899;BME280;20544;50.018;20.010;2023-04-06T14:12:23;98876.22;;;1.60;100.00
23899;BME280;20544;50.018;20.010;2023-04-06T14:15:41;98888.25;;;1.40;100.00
23899;BME280;20544;50.018;20.010;2023-04-06T14:19:00;98883.84;;;1.40;100.00
23899;BME280;20544;50.018;20.010;2023-04-06T14:22:16;98885.26;;;1.44;100.00
23899;BME280;20544;50.018;20.010;2023-04-06T14:25:33;98887.52;;;1.49;100.00
23899;BME280;20544;50.018;20.010;2023-04-06T14:28:50;98879.93;;;1.46;100.00
23899;BME280;20544;50.018;20.010;2023-04-06T14:32:06;98882.52;;;1.57;100.00
23899;BME280;20544;50.018;20.010;2023-04-06T14:35:23;98885.95;;;1.58;100.00
23899;BME280;20544;50.018;20.010;2023-04-06T14:38:41;98892.86;;;1.59;100.00
23899;BME280;20544;50.018;20.010;2023-04-06T14:41:58;98890.83;;;1.63;100.00
23899;BME280;20544;50.018;20.010;2023-04-06T14:45:14;98892.70;;;1.72;100.00
23899;BME280;20544;50.018;20.010;2023-04-06T14:48:31;98889.16;;;1.61;100.00
23899;BME280;20544;50.018;20.010;2023-04-06T14:51:48;98884.16;;;1.70;100.00
23899;BME280;20544;50.018;20.010;2023-04-06T14:55:06;98889.52;;;1.57;100.00
23899;BME280;20544;50.018;20.010;2023-04-06T14:58:24;98887.75;;;1.57;100.00
23899;BME280;20544;50.018;20.010;2023-04-06T15:01:41;98890.96;;;1.61;100.00
23899;BME280;20544;50.018;20.010;2023-04-06T15:05:04;98889.13;;;1.73;100.00
23899;BME280;20544;50.018;20.010;2023-04-06T15:08:21;98893.19;;;1.77;100.00
23899;BME280;20544;50.018;20.010;2023-04-06T15:11:38;98889.72;;;1.76;100.00
23899;BME280;20544;50.018;20.010;2023-04-06T15:14:54;98882.10;;;1.85;100.00
23899;BME280;20544;50.018;20.010;2023-04-06T15:18:11;98882.92;;;1.85;100.00
23899;BME280;20544;50.018;20.010;2023-04-06T15:21:28;98869.02;;;1.85;100.00
23899;BME280;20544;50.018;20.010;2023-04-06T15:24:44;98887.80;;;1.90;100.00
23899;BME280;20544;50.018;20.010;2023-04-06T15:28:01;98882.20;;;1.83;100.00
23899;BME280;20544;50.018;20.010;2023-04-06T15:31:21;98882.80;;;1.87;100.00
23899;BME280;20544;50.018;20.010;2023-04-06T15:34:39;98879.36;;;1.86;100.00
23899;BME280;20544;50.018;20.010;2023-04-06T15:37:56;98884.72;;;1.85;100.00
23899;BME280;20544;50.018;20.010;2023-04-06T15:41:12;98878.91;;;1.81;100.00
23899;BME280;20544;50.018;20.010;2023-04-06T15:44:29;98879.49;;;1.85;100.00
23899;BME280;20544;50.018;20.010;2023-04-06T15:47:46;98882.34;;;1.82;100.00
23899;BME280;20544;50.018;20.010;2023-04-06T15:51:03;98884.13;;;1.81;100.00
23899;BME280;20544;50.018;20.010;2023-04-06T15:54:20;98882.59;;;1.78;100.00
23899;BME280;20544;50.018;20.010;2023-04-06T15:57:36;98890.67;;;1.75;100.00
23899;BME280;20544;50.018;20.010;2023-04-06T16:00:53;98891.65;;;1.63;100.00
23899;BME280;20544;50.018;20.010;2023-04-06T16:04:10;98892.73;;;1.60;100.00
23899;BME280;20544;50.018;20.010;2023-04-06T16:07:27;98888.22;;;1.63;100.00
23899;BME280;20544;50.018;20.010;2023-04-06T16:10:43;98892.23;;;1.67;100.00
23899;BME280;20544;50.018;20.010;2023-04-06T16:14:00;98891.91;;;1.60;100.00
23899;BME280;20544;50.018;20.010;2023-04-06T16:17:17;98892.98;;;1.57;100.00
23899;BME280;20544;50.018;20.010;2023-04-06T16:20:36;98888.44;;;1.59;100.00
23899;BME280;20544;50.018;20.010;2023-04-06T16:23:53;98887.19;;;1.42;100.00
23899;BME280;20544;50.018;20.010;2023-04-06T16:27:09;98878.62;;;1.40;100.00
23899;BME280;20544;50.018;20.010;2023-04-06T16:30:26;98880.89;;;1.34;100.00
23899;BME280;20544;50.018;20.010;2023-04-06T16:33:42;98887.06;;;1.33;100.00
23899;BME280;20544;50.018;20.010;2023-04-06T16:36:58;98884.11;;;1.26;100.00
23899;BME280;20544;50.018;20.010;2023-04-06T16:40:15;98880.05;;;1.22;100.00
23899;BME280;20544;50.018;20.010;2023-04-06T16:43:32;98873.89;;;1.11;100.00
23899;BME280;20544;50.018;20.010;2023-04-06T16:46:48;98873.89;;;1.11;100.00
23899;BME280;20544;50.018;20.010;2023-04-06T16:50:06;98875.31;;;1.04;100.00
23899;BME280;20544;50.018;20.010;2023-04-06T16:53:23;98873.89;;;1.00;100.00
23899;BME280;20544;50.018;20.010;2023-04-06T16:56:40;98872.35;;;0.98;100.00
23899;BME280;20544;50.018;20.010;2023-04-06T16:59:56;98865.71;;;1.05;100.00
23899;BME280;20544;50.018;20.010;2023-04-06T17:03:13;98861.53;;;1.02;100.00
23899;BME280;20544;50.018;20.010;2023-04-06T17:09:46;98863.79;;;1.07;100.00
23899;BME280;20544;50.018;20.010;2023-04-06T17:13:02;98866.18;;;1.10;100.00
23899;BME280;20544;50.018;20.010;2023-04-06T17:16:18;98865.92;;;1.13;100.00
23899;BME280;20544;50.018;20.010;2023-04-06T17:19:37;98864.04;;;1.15;100.00
23899;BME280;20544;50.018;20.010;2023-04-06T17:22:53;98864.27;;;1.01;100.00
23899;BME280;20544;50.018;20.010;2023-04-06T17:26:10;98870.94;;;1.05;100.00
23899;BME280;20544;50.018;20.010;2023-04-06T17:29:27;98866.66;;;1.04;100.00
23899;BME280;20544;50.018;20.010;2023-04-06T17:32:43;98870.56;;;0.98;100.00
23899;BME280;20544;50.018;20.010;2023-04-06T17:36:00;98862.50;;;1.01;100.00